sensor_id;sensor_type;location;lat;lon;timestamp;pressure;altitude;pressure_sealevel;temperature
82400;BMP280;72039;48.812;8.198;2023-08-30T00:01:25;99781.72;;;16.40
82400;BMP280;72039;48.812;8.198;2023-08-30T00:03:51;99780.28;;;16.39
82400;BMP280;72039;48.812;8.198;2023-08-30T00:06:19;99778.88;;;16.38
82400;BMP280;72039;48.812;8.198;2023-08-30T00:08:46;99776.75;;;16.37
82400;BMP280;72039;48.812;8.198;2023-08-30T00:11:13;99764.16;;;16.36
82400;BMP280;72039;48.812;8.198;2023-08-30T00:13:39;99762.75;;;16.37
82400;BMP280;72039;48.812;8.198;2023-08-30T00:16:06;99776.75;;;16.37
82400;BMP280;72039;48.812;8.198;2023-08-30T00:18:31;99776.78;;;16.39
82400;BMP280;72039;48.812;8.198;2023-08-30T00:20:57;99770.50;;;16.40
82400;BMP280;72039;48.812;8.198;2023-08-30T00:23:22;99776.09;;;16.40
82400;BMP280;72039;48.812;8.198;2023-08-30T00:25:48;99773.28;;;16.38
82400;BMP280;72039;48.812;8.198;2023-08-30T00:28:16;99768.38;;;16.39
82400;BMP280;72039;48.812;8.198;2023-08-30T00:30:46;99767.00;;;16.38
82400;BMP280;72039;48.812;8.198;2023-08-30T00:33:11;99761.41;;;16.40
82400;BMP280;72039;48.812;8.198;2023-08-30T00:35:39;99774.06;;;16.43
82400;BMP280;72039;48.812;8.198;2023-08-30T00:38:05;99774.75;;;16.44
82400;BMP280;72039;48.812;8.198;2023-08-30T00:40:37;99772.63;;;16.44
82400;BMP280;72039;48.812;8.198;2023-08-30T00:43:03;99771.31;;;16.47
82400;BMP280;72039;48.812;8.198;2023-08-30T00:45:32;99773.44;;;16.51
82400;BMP280;72039;48.812;8.198;2023-08-30T00:47:57;99765.09;;;16.53
82400;BMP280;72039;48.812;8.198;2023-08-30T00:50:23;99767.19;;;16.52
82400;BMP280;72039;48.812;8.198;2023-08-30T00:52:48;99769.31;;;16.54
82400;BMP280;72039;48.812;8.198;2023-08-30T00:55:16;99766.53;;;16.56
82400;BMP280;72039;48.812;8.198;2023-08-30T00:57:41;99762.34;;;16.57
82400;BMP280;72039;48.812;8.198;2023-08-30T01:00:11;99760.19;;;16.55
82400;BMP280;72039;48.812;8.198;2023-08-30T01:02:39;99760.88;;;16.52
82400;BMP280;72039;48.812;8.198;2023-08-30T01:05:07;99752.38;;;16.46
82400;BMP280;72039;48.812;8.198;2023-08-30T01:07:35;99757.91;;;16.41
82400;BMP280;72039;48.812;8.198;2023-08-30T01:10:00;99748.81;;;16.41
82400;BMP280;72039;48.812;8.198;2023-08-30T01:12:34;99752.34;;;16.44
82400;BMP280;72039;48.812;8.198;2023-08-30T01:15:21;99752.38;;;16.46
82400;BMP280;72039;48.812;8.198;2023-08-30T01:17:48;99749.56;;;16.46
82400;BMP280;72039;48.812;8.198;2023-08-30T01:20:20;99753.03;;;16.44
82400;BMP280;72039;48.812;8.198;2023-08-30T01:28:23;99756.56;;;16.42
82400;BMP280;72039;48.812;8.198;2023-08-30T01:30:50;99760.72;;;16.41
82400;BMP280;72039;48.812;8.198;2023-08-30T01:33:20;99753.72;;;16.40
82400;BMP280;72039;48.812;8.198;2023-08-30T01:35:46;99757.16;;;16.39
82400;BMP280;72039;48.812;8.198;2023-08-30T01:38:11;99748.06;;;16.38
82400;BMP280;72039;48.812;8.198;2023-08-30T01:40:41;99752.28;;;16.37
82400;BMP280;72039;48.812;8.198;2023-08-30T01:43:07;99755.09;;;16.37
82400;BMP280;72039;48.812;8.198;2023-08-30T01:45:35;99750.88;;;16.38
82400;BMP280;72039;48.812;8.198;2023-08-30T01:48:04;99750.88;;;16.38
82400;BMP280;72039;48.812;8.198;2023-08-30T01:50:31;99753.72;;;16.40
82400;BMP280;72039;48.812;8.198;2023-08-30T01:52:57;99753.75;;;16.42
82400;BMP280;72039;48.812;8.198;2023-08-30T01:55:24;99750.97;;;16.45
82400;BMP280;72039;48.812;8.198;2023-08-30T01:57:50;99753.06;;;16.46
82400;BMP280;72039;48.812;8.198;2023-08-30T02:00:15;99757.97;;;16.46
82400;BMP280;72039;48.812;8.198;2023-08-30T02:02:41;99753.78;;;16.45
82400;BMP280;72039;48.812;8.198;2023-08-30T02:05:08;99750.94;;;16.42
82400;BMP280;72039;48.812;8.198;2023-08-30T02:08:15;99749.50;;;16.37
82400;BMP280;72039;48.812;8.198;2023-08-30T02:10:48;99749.41;;;16.33
82400;BMP280;72039;48.812;8.198;2023-08-30T02:13:14;99752.19;;;16.31
82400;BMP280;72039;48.812;8.198;2023-08-30T02:15:42;99763.31;;;16.27
82400;BMP280;72039;48.812;8.198;2023-08-30T02:18:08;99754.88;;;16.25
82400;BMP280;72039;48.812;8.198;2023-08-30T02:20:37;99751.38;;;16.25
82400;BMP280;72039;48.812;8.198;2023-08-30T02:23:02;99756.28;;;16.24
82400;BMP280;72039;48.812;8.198;2023-08-30T02:25:28;99742.97;;;16.25
82400;BMP280;72039;48.812;8.198;2023-08-30T02:27:53;99745.06;;;16.22
82400;BMP280;72039;48.812;8.198;2023-08-30T02:30:18;99748.47;;;16.18
82400;BMP280;72039;48.812;8.198;2023-08-30T02:32:44;99746.34;;;16.15
82400;BMP280;72039;48.812;8.198;2023-08-30T02:35:09;99739.25;;;16.12
82400;BMP280;72039;48.812;8.198;2023-08-30T02:37:34;99743.44;;;16.09
82400;BMP280;72039;48.812;8.198;2023-08-30T02:40:00;99748.28;;;16.06
82400;BMP280;72039;48.812;8.198;2023-08-30T02:42:26;99748.97;;;16.05
82400;BMP280;72039;48.812;8.198;2023-08-30T02:44:51;99748.91;;;16.01
82400;BMP280;72039;48.812;8.198;2023-08-30T02:47:17;99746.09;;;16.01
82400;BMP280;72039;48.812;8.198;2023-08-30T02:49:42;99751.69;;;15.99
82400;BMP280;72039;48.812;8.198;2023-08-30T02:52:08;99750.94;;;15.96
82400;BMP280;72039;48.812;8.198;2023-08-30T02:54:33;99753.75;;;15.98
82400;BMP280;72039;48.812;8.198;2023-08-30T02:56:58;99760.78;;;15.99
82400;BMP280;72039;48.812;8.198;2023-08-30T02:59:23;99756.59;;;16.02
82400;BMP280;72039;48.812;8.198;2023-08-30T03:01:49;99748.25;;;16.04
82400;BMP280;72039;48.812;8.198;2023-08-30T03:04:16;99754.59;;;16.07
82400;BMP280;72039;48.812;8.198;2023-08-30T03:06:44;99742.00;;;16.06
82400;BMP280;72039;48.812;8.198;2023-08-30T03:09:10;99746.13;;;16.03
82400;BMP280;72039;48.812;8.198;2023-08-30T03:11:36;99739.81;;;16.02
82400;BMP280;72039;48.812;8.198;2023-08-30T03:14:02;99739.81;;;16.02
82400;BMP280;72039;48.812;8.198;2023-08-30T03:16:27;99737.69;;;15.99
82400;BMP280;72039;48.812;8.198;2023-08-30T03:18:55;99729.28;;;15.99
82400;BMP280;72039;48.812;8.198;2023-08-30T03:21:22;99725.06;;;15.98
82400;BMP280;72039;48.812;8.198;2023-08-30T03:23:48;99729.25;;;15.97
82400;BMP280;72039;48.812;8.198;2023-08-30T03:26:15;99722.25;;;15.98
82400;BMP280;72039;48.812;8.198;2023-08-30T03:28:43;99728.53;;;15.96
82400;BMP280;72039;48.812;8.198;2023-08-30T03:33:42;99719.38;;;15.91
82400;BMP280;72039;48.812;8.198;2023-08-30T03:36:10;99724.25;;;15.91
82400;BMP280;72039;48.812;8.198;2023-08-30T03:38:41;99729.13;;;15.90
82400;BMP280;72039;48.812;8.198;2023-08-30T03:41:12;99727.09;;;15.93
82400;BMP280;72039;48.812;8.198;2023-08-30T03:43:38;99728.53;;;15.94
82400;BMP280;72039;48.812;8.198;2023-08-30T03:46:03;99727.81;;;15.96
82400;BMP280;72039;48.812;8.198;2023-08-30T03:48:29;99723.63;;;15.95
82400;BMP280;72039;48.812;8.198;2023-08-30T03:50:56;99724.28;;;15.93
82400;BMP280;72039;48.812;8.198;2023-08-30T03:53:22;99727.03;;;15.89
82400;BMP280;72039;48.812;8.198;2023-08-30T03:55:48;99736.06;;;15.85
82400;BMP280;72039;48.812;8.198;2023-08-30T03:58:16;99726.22;;;15.82
82400;BMP280;72039;48.812;8.198;2023-08-30T04:00:41;99726.22;;;15.84
82400;BMP280;72039;48.812;8.198;2023-08-30T04:03:08;99723.47;;;15.86
82400;BMP280;72039;48.812;8.198;2023-08-30T04:05:37;99726.94;;;15.83
82400;BMP280;72039;48.812;8.198;2023-08-30T04:08:03;99721.25;;;15.79
82400;BMP280;72039;48.812;8.198;2023-08-30T04:10:29;99722.66;;;15.78
82400;BMP280;72039;48.812;8.198;2023-08-30T04:12:56;99721.94;;;15.79
82400;BMP280;72039;48.812;8.198;2023-08-30T04:15:21;99720.63;;;15.82
82400;BMP280;72039;48.812;8.198;2023-08-30T04:17:47;99724.88;;;15.85
82400;BMP280;72039;48.812;8.198;2023-08-30T04:20:16;99720.72;;;15.88
82400;BMP280;72039;48.812;8.198;2023-08-30T04:22:44;99718.66;;;15.91
82400;BMP280;72039;48.812;8.198;2023-08-30T04:25:10;99723.53;;;15.90
82400;BMP280;72039;48.812;8.198;2023-08-30T04:27:35;99722.16;;;15.89
82400;BMP280;72039;48.812;8.198;2023-08-30T04:30:01;99719.38;;;15.91
82400;BMP280;72039;48.812;8.198;2023-08-30T04:32:27;99720.78;;;15.92
82400;BMP280;72039;48.812;8.198;2023-08-30T04:34:52;99724.28;;;15.93
82400;BMP280;72039;48.812;8.198;2023-08-30T04:37:18;99722.19;;;15.93
82400;BMP280;72039;48.812;8.198;2023-08-30T04:39:47;99729.19;;;15.92
82400;BMP280;72039;48.812;8.198;2023-08-30T04:42:15;99721.44;;;15.89
82400;BMP280;72039;48.812;8.198;2023-08-30T04:44:42;99731.16;;;15.86
82400;BMP280;72039;48.812;8.198;2023-08-30T04:47:10;99734.63;;;15.84
82400;BMP280;72039;48.812;8.198;2023-08-30T04:49:35;99734.63;;;15.84
82400;BMP280;72039;48.812;8.198;2023-08-30T04:52:01;99730.47;;;15.85
82400;BMP280;72039;48.812;8.198;2023-08-30T04:54:26;99733.25;;;15.85
82400;BMP280;72039;48.812;8.198;2023-08-30T04:56:51;99737.47;;;15.86
82400;BMP280;72039;48.812;8.198;2023-08-30T04:59:17;99738.19;;;15.87
82400;BMP280;72039;48.812;8.198;2023-08-30T05:01:42;99733.34;;;15.89
82400;BMP280;72039;48.812;8.198;2023-08-30T05:04:10;99736.19;;;15.93
82400;BMP280;72039;48.812;8.198;2023-08-30T05:06:40;99730.63;;;15.96
82400;BMP280;72039;48.812;8.198;2023-08-30T05:09:05;99729.25;;;15.97
82400;BMP280;72039;48.812;8.198;2023-08-30T05:11:31;99726.44;;;15.97
82400;BMP280;72039;48.812;8.198;2023-08-30T05:13:56;99724.31;;;15.95
82400;BMP280;72039;48.812;8.198;2023-08-30T05:16:22;99736.22;;;15.96
82400;BMP280;72039;48.812;8.198;2023-08-30T05:18:49;99737.66;;;15.97
82400;BMP280;72039;48.812;8.198;2023-08-30T05:21:14;99741.84;;;15.98
82400;BMP280;72039;48.812;8.198;2023-08-30T05:23:42;99747.41;;;15.96
82400;BMP280;72039;48.812;8.198;2023-08-30T05:26:09;99737.53;;;15.90
82400;BMP280;72039;48.812;8.198;2023-08-30T05:28:37;99743.13;;;15.90
82400;BMP280;72039;48.812;8.198;2023-08-30T05:33:31;99727.78;;;15.91
82400;BMP280;72039;48.812;8.198;2023-08-30T05:35:56;99728.53;;;15.94
82400;BMP280;72039;48.812;8.198;2023-08-30T05:38:22;99726.44;;;15.97
82400;BMP280;72039;48.812;8.198;2023-08-30T05:40:49;99722.31;;;16.00
82400;BMP280;72039;48.812;8.198;2023-08-30T05:43:14;99716.72;;;16.02
82400;BMP280;72039;48.812;8.198;2023-08-30T05:45:41;99719.56;;;16.04
82400;BMP280;72039;48.812;8.198;2023-08-30T05:48:06;99711.25;;;16.08
82400;BMP280;72039;48.812;8.198;2023-08-30T05:50:34;99723.19;;;16.10
82400;BMP280;72039;48.812;8.198;2023-08-30T05:53:02;99723.88;;;16.11
82400;BMP280;72039;48.812;8.198;2023-08-30T05:55:28;99727.34;;;16.09
82400;BMP280;72039;48.812;8.198;2023-08-30T05:57:55;99729.47;;;16.11
82400;BMP280;72039;48.812;8.198;2023-08-30T06:00:21;99730.25;;;16.15
82400;BMP280;72039;48.812;8.198;2023-08-30T06:02:46;99724.00;;;16.19
82400;BMP280;72039;48.812;8.198;2023-08-30T06:05:18;99732.41;;;16.21
82400;BMP280;72039;48.812;8.198;2023-08-30T06:07:43;99727.59;;;16.26
82400;BMP280;72039;48.812;8.198;2023-08-30T06:10:10;99726.22;;;16.27
82400;BMP280;72039;48.812;8.198;2023-08-30T06:12:35;99726.22;;;16.27
82400;BMP280;72039;48.812;8.198;2023-08-30T06:15:00;99724.19;;;16.31
82400;BMP280;72039;48.812;8.198;2023-08-30T06:17:27;99722.09;;;16.34
82400;BMP280;72039;48.812;8.198;2023-08-30T06:19:53;99724.28;;;16.37
82400;BMP280;72039;48.812;8.198;2023-08-30T06:22:18;99729.88;;;16.39
82400;BMP280;72039;48.812;8.198;2023-08-30T06:24:43;99728.47;;;16.38
82400;BMP280;72039;48.812;8.198;2023-08-30T06:27:09;99729.88;;;16.37
82400;BMP280;72039;48.812;8.198;2023-08-30T06:29:34;99732.69;;;16.37
82400;BMP280;72039;48.812;8.198;2023-08-30T06:32:02;99720.06;;;16.38
82400;BMP280;72039;48.812;8.198;2023-08-30T06:34:32;99718.72;;;16.41
82400;BMP280;72039;48.812;8.198;2023-08-30T06:36:57;99717.34;;;16.42
82400;BMP280;72039;48.812;8.198;2023-08-30T06:39:22;99725.03;;;16.44
82400;BMP280;72039;48.812;8.198;2023-08-30T06:41:50;99723.00;;;16.47
82400;BMP280;72039;48.812;8.198;2023-08-30T06:44:16;99725.13;;;16.48
82400;BMP280;72039;48.812;8.198;2023-08-30T06:46:42;99722.38;;;16.52
82400;BMP280;72039;48.812;8.198;2023-08-30T06:49:08;99728.72;;;16.57
82400;BMP280;72039;48.812;8.198;2023-08-30T06:51:36;99723.88;;;16.61
82400;BMP280;72039;48.812;8.198;2023-08-30T06:54:03;99726.03;;;16.63
82400;BMP280;72039;48.812;8.198;2023-08-30T06:56:28;99720.44;;;16.65
82400;BMP280;72039;48.812;8.198;2023-08-30T06:58:54;99724.63;;;16.64
82400;BMP280;72039;48.812;8.198;2023-08-30T07:01:19;99725.34;;;16.66
82400;BMP280;72039;48.812;8.198;2023-08-30T07:03:48;99721.97;;;16.74
82400;BMP280;72039;48.812;8.198;2023-08-30T07:06:13;99724.97;;;16.92
82400;BMP280;72039;48.812;8.198;2023-08-30T07:08:40;99716.72;;;17.07
82400;BMP280;72039;48.812;8.198;2023-08-30T07:11:05;99716.16;;;17.19
82400;BMP280;72039;48.812;8.198;2023-08-30T07:13:30;99714.16;;;17.29
82400;BMP280;72039;48.812;8.198;2023-08-30T07:15:58;99703.00;;;17.37
82400;BMP280;72039;48.812;8.198;2023-08-30T07:18:27;99703.13;;;17.50
82400;BMP280;72039;48.812;8.198;2023-08-30T07:20:53;99699.69;;;17.55
82400;BMP280;72039;48.812;8.198;2023-08-30T07:23:19;99701.88;;;17.65
82400;BMP280;72039;48.812;8.198;2023-08-30T07:25:45;99695.66;;;17.79
82400;BMP280;72039;48.812;8.198;2023-08-30T07:28:15;99701.34;;;17.93
82400;BMP280;72039;48.812;8.198;2023-08-30T07:30:41;99702.19;;;18.06
82400;BMP280;72039;48.812;8.198;2023-08-30T07:33:06;99696.63;;;18.18
82400;BMP280;72039;48.812;8.198;2023-08-30T07:35:36;99702.97;;;18.27
82400;BMP280;72039;48.812;8.198;2023-08-30T07:38:02;99698.13;;;18.33
82400;BMP280;72039;48.812;8.198;2023-08-30T07:40:30;99696.75;;;18.42
82400;BMP280;72039;48.812;8.198;2023-08-30T07:42:56;99696.78;;;18.53
82400;BMP280;72039;48.812;8.198;2023-08-30T07:45:23;99694.00;;;18.57
82400;BMP280;72039;48.812;8.198;2023-08-30T07:47:53;99696.84;;;18.63
82400;BMP280;72039;48.812;8.198;2023-08-30T07:50:21;99694.03;;;18.67
82400;BMP280;72039;48.812;8.198;2023-08-30T07:52:49;99699.00;;;18.77
82400;BMP280;72039;48.812;8.198;2023-08-30T07:55:14;99699.69;;;18.83
82400;BMP280;72039;48.812;8.198;2023-08-30T07:57:40;99696.91;;;18.91
82400;BMP280;72039;48.812;8.198;2023-08-30T08:00:12;99701.88;;;19.03
82400;BMP280;72039;48.812;8.198;2023-08-30T08:02:37;99697.69;;;19.21
82400;BMP280;72039;48.812;8.198;2023-08-30T08:05:03;99697.72;;;19.37
82400;BMP280;72039;48.812;8.198;2023-08-30T08:07:31;99698.41;;;19.54
82400;BMP280;72039;48.812;8.198;2023-08-30T08:09:59;99709.66;;;19.68
82400;BMP280;72039;48.812;8.198;2023-08-30T08:12:28;99708.25;;;19.75
82400;BMP280;72039;48.812;8.198;2023-08-30T08:14:54;99705.44;;;19.81
82400;BMP280;72039;48.812;8.198;2023-08-30T08:17:22;99705.41;;;19.83
82400;BMP280;72039;48.812;8.198;2023-08-30T08:19:52;99715.28;;;19.80
82400;BMP280;72039;48.812;8.198;2023-08-30T08:22:18;99708.25;;;19.81
82400;BMP280;72039;48.812;8.198;2023-08-30T08:24:43;99715.25;;;19.86
82400;BMP280;72039;48.812;8.198;2023-08-30T08:27:12;99713.88;;;19.87
82400;BMP280;72039;48.812;8.198;2023-08-30T08:29:37;99709.63;;;19.99
82400;BMP280;72039;48.812;8.198;2023-08-30T08:32:03;99712.41;;;20.07
82400;BMP280;72039;48.812;8.198;2023-08-30T08:34:31;99700.44;;;20.10
82400;BMP280;72039;48.812;8.198;2023-08-30T08:36:56;99711.00;;;20.12
82400;BMP280;72039;48.812;8.198;2023-08-30T08:39:24;99716.63;;;20.16
82400;BMP280;72039;48.812;8.198;2023-08-30T08:41:51;99708.84;;;20.22
82400;BMP280;72039;48.812;8.198;2023-08-30T08:44:19;99706.72;;;20.33
82400;BMP280;72039;48.812;8.198;2023-08-30T08:46:47;99713.69;;;20.46
82400;BMP280;72039;48.812;8.198;2023-08-30T08:49:14;99713.69;;;20.55
82400;BMP280;72039;48.812;8.198;2023-08-30T08:51:41;99720.66;;;20.64
82400;BMP280;72039;48.812;8.198;2023-08-30T08:54:10;99716.38;;;20.77
82400;BMP280;72039;48.812;8.198;2023-08-30T08:56:36;99720.56;;;20.86
82400;BMP280;72039;48.812;8.198;2023-08-30T08:59:07;99722.59;;;21.00
82400;BMP280;72039;48.812;8.198;2023-08-30T09:01:35;99723.19;;;21.15
82400;BMP280;72039;48.812;8.198;2023-08-30T09:04:13;99729.59;;;21.09
82400;BMP280;72039;48.812;8.198;2023-08-30T09:06:41;99724.03;;;20.95
82400;BMP280;72039;48.812;8.198;2023-08-30T09:09:10;99740.31;;;20.84
82400;BMP280;72039;48.812;8.198;2023-08-30T09:11:39;99740.31;;;20.82
82400;BMP280;72039;48.812;8.198;2023-08-30T09:14:09;99736.13;;;20.79
82400;BMP280;72039;48.812;8.198;2023-08-30T09:16:39;99728.31;;;20.86
82400;BMP280;72039;48.812;8.198;2023-08-30T09:19:07;99739.63;;;20.80
82400;BMP280;72039;48.812;8.198;2023-08-30T09:21:34;99745.31;;;20.71
82400;BMP280;72039;48.812;8.198;2023-08-30T09:24:08;99739.00;;;20.61
82400;BMP280;72039;48.812;8.198;2023-08-30T09:26:34;99743.25;;;20.54
82400;BMP280;72039;48.812;8.198;2023-08-30T09:29:06;99739.06;;;20.48
82400;BMP280;72039;48.812;8.198;2023-08-30T09:31:35;99735.56;;;20.46
82400;BMP280;72039;48.812;8.198;2023-08-30T09:34:04;99742.59;;;20.45
82400;BMP280;72039;48.812;8.198;2023-08-30T09:39:21;99733.47;;;20.34
82400;BMP280;72039;48.812;8.198;2023-08-30T09:44:17;99725.00;;;20.38
82400;BMP280;72039;48.812;8.198;2023-08-30T09:46:49;99723.59;;;20.41
82400;BMP280;72039;48.812;8.198;2023-08-30T09:49:15;99734.84;;;20.47
82400;BMP280;72039;48.812;8.198;2023-08-30T09:51:47;99732.00;;;20.47
82400;BMP280;72039;48.812;8.198;2023-08-30T09:54:18;99730.59;;;20.48
82400;BMP280;72039;48.812;8.198;2023-08-30T09:56:46;99724.97;;;20.48
82400;BMP280;72039;48.812;8.198;2023-08-30T09:59:20;99730.59;;;20.46
82400;BMP280;72039;48.812;8.198;2023-08-30T10:01:47;99724.97;;;20.48
82400;BMP280;72039;48.812;8.198;2023-08-30T10:04:19;99717.88;;;20.62
82400;BMP280;72039;48.812;8.198;2023-08-30T10:06:48;99712.16;;;20.76
82400;BMP280;72039;48.812;8.198;2023-08-30T10:09:15;99714.88;;;20.92
82400;BMP280;72039;48.812;8.198;2023-08-30T10:11:40;99709.81;;;21.11
82400;BMP280;72039;48.812;8.198;2023-08-30T10:14:08;99710.34;;;21.36
82400;BMP280;72039;48.812;8.198;2023-08-30T10:16:43;99698.91;;;21.55
82400;BMP280;72039;48.812;8.198;2023-08-30T10:19:26;99695.88;;;21.77
82400;BMP280;72039;48.812;8.198;2023-08-30T10:22:01;99697.81;;;21.95
82400;BMP280;72039;48.812;8.198;2023-08-30T10:24:56;99698.38;;;22.05
82400;BMP280;72039;48.812;8.198;2023-08-30T10:27:29;99691.09;;;22.23
82400;BMP280;72039;48.812;8.198;2023-08-30T10:29:57;99690.19;;;22.41
82400;BMP280;72039;48.812;8.198;2023-08-30T10:32:24;99679.44;;;22.51
82400;BMP280;72039;48.812;8.198;2023-08-30T10:35:03;99677.81;;;22.67
82400;BMP280;72039;48.812;8.198;2023-08-30T10:37:31;99679.09;;;22.76
82400;BMP280;72039;48.812;8.198;2023-08-30T10:39:59;99668.34;;;22.87
82400;BMP280;72039;48.812;8.198;2023-08-30T10:42:25;99663.13;;;23.01
82400;BMP280;72039;48.812;8.198;2023-08-30T10:47:34;99664.03;;;23.33
82400;BMP280;72039;48.812;8.198;2023-08-30T10:50:12;99668.69;;;23.49
82400;BMP280;72039;48.812;8.198;2023-08-30T10:52:40;99667.31;;;23.46
82400;BMP280;72039;48.812;8.198;2023-08-30T10:55:09;99663.88;;;23.41
82400;BMP280;72039;48.812;8.198;2023-08-30T10:57:44;99657.97;;;23.55
82400;BMP280;72039;48.812;8.198;2023-08-30T11:00:20;99658.19;;;23.43
82400;BMP280;72039;48.812;8.198;2023-08-30T11:02:51;99662.06;;;23.23
82400;BMP280;72039;48.812;8.198;2023-08-30T11:05:22;99657.22;;;23.18
82400;BMP280;72039;48.812;8.198;2023-08-30T11:07:49;99645.59;;;23.34
82400;BMP280;72039;48.812;8.198;2023-08-30T11:10:16;99643.22;;;23.49
82400;BMP280;72039;48.812;8.198;2023-08-30T11:12:44;99636.94;;;23.44
82400;BMP280;72039;48.812;8.198;2023-08-30T11:15:11;99645.13;;;23.60
82400;BMP280;72039;48.812;8.198;2023-08-30T11:17:39;99639.16;;;23.75
82400;BMP280;72039;48.812;8.198;2023-08-30T11:20:08;99631.19;;;23.85
82400;BMP280;72039;48.812;8.198;2023-08-30T11:22:45;99637.38;;;23.94
82400;BMP280;72039;48.812;8.198;2023-08-30T11:25:12;99637.22;;;24.02
82400;BMP280;72039;48.812;8.198;2023-08-30T11:27:38;99634.50;;;23.96
82400;BMP280;72039;48.812;8.198;2023-08-30T11:30:05;99629.50;;;23.99
82400;BMP280;72039;48.812;8.198;2023-08-30T11:32:44;99629.09;;;24.17
82400;BMP280;72039;48.812;8.198;2023-08-30T11:35:12;99635.31;;;24.24
82400;BMP280;72039;48.812;8.198;2023-08-30T11:37:40;99633.09;;;24.28
82400;BMP280;72039;48.812;8.198;2023-08-30T11:40:10;99625.16;;;24.35
82400;BMP280;72039;48.812;8.198;2023-08-30T11:42:38;99630.50;;;24.49
82400;BMP280;72039;48.812;8.198;2023-08-30T11:45:07;99621.84;;;24.55
82400;BMP280;72039;48.812;8.198;2023-08-30T11:47:33;99617.41;;;24.62
82400;BMP280;72039;48.812;8.198;2023-08-30T11:50:04;99615.28;;;24.63
82400;BMP280;72039;48.812;8.198;2023-08-30T11:52:32;99607.31;;;24.69
82400;BMP280;72039;48.812;8.198;2023-08-30T11:54:58;99614.22;;;24.77
82400;BMP280;72039;48.812;8.198;2023-08-30T11:57:27;99602.00;;;24.84
82400;BMP280;72039;48.812;8.198;2023-08-30T12:00:09;99603.78;;;24.98
82400;BMP280;72039;48.812;8.198;2023-08-30T12:02:40;99604.66;;;24.90
82400;BMP280;72039;48.812;8.198;2023-08-30T12:05:05;99603.41;;;24.85
82400;BMP280;72039;48.812;8.198;2023-08-30T12:07:32;99607.00;;;24.84
82400;BMP280;72039;48.812;8.198;2023-08-30T12:10:09;99612.53;;;24.88
82400;BMP280;72039;48.812;8.198;2023-08-30T12:12:44;99596.69;;;24.97
82400;BMP280;72039;48.812;8.198;2023-08-30T12:15:10;99608.00;;;24.99
82400;BMP280;72039;48.812;8.198;2023-08-30T12:17:39;99607.03;;;24.82
82400;BMP280;72039;48.812;8.198;2023-08-30T12:20:05;99604.47;;;24.69
82400;BMP280;72039;48.812;8.198;2023-08-30T12:25:04;99614.06;;;24.85
82400;BMP280;72039;48.812;8.198;2023-08-30T12:27:29;99604.03;;;24.88
82400;BMP280;72039;48.812;8.198;2023-08-30T12:29:57;99595.72;;;24.80
82400;BMP280;72039;48.812;8.198;2023-08-30T12:32:22;99600.13;;;24.74
82400;BMP280;72039;48.812;8.198;2023-08-30T12:34:50;99589.47;;;24.75
82400;BMP280;72039;48.812;8.198;2023-08-30T12:37:18;99598.41;;;24.86
82400;BMP280;72039;48.812;8.198;2023-08-30T12:39:46;99592.53;;;24.94
82400;BMP280;72039;48.812;8.198;2023-08-30T12:42:14;99593.72;;;25.03
82400;BMP280;72039;48.812;8.198;2023-08-30T12:44:39;99595.69;;;25.09
82400;BMP280;72039;48.812;8.198;2023-08-30T12:47:04;99586.31;;;25.14
82400;BMP280;72039;48.812;8.198;2023-08-30T12:49:32;99599.59;;;25.22
82400;BMP280;72039;48.812;8.198;2023-08-30T12:51:58;99588.88;;;25.24
82400;BMP280;72039;48.812;8.198;2023-08-30T12:54:37;99593.38;;;25.15
82400;BMP280;72039;48.812;8.198;2023-08-30T12:57:04;99591.31;;;25.14
82400;BMP280;72039;48.812;8.198;2023-08-30T12:59:30;99602.09;;;25.09
82400;BMP280;72039;48.812;8.198;2023-08-30T13:01:59;99607.75;;;25.09
82400;BMP280;72039;48.812;8.198;2023-08-30T13:04:24;99607.91;;;25.03
82400;BMP280;72039;48.812;8.198;2023-08-30T13:06:56;99599.34;;;25.05
82400;BMP280;72039;48.812;8.198;2023-08-30T13:09:26;99605.03;;;25.05
82400;BMP280;72039;48.812;8.198;2023-08-30T13:11:51;99594.00;;;24.93
82400;BMP280;72039;48.812;8.198;2023-08-30T13:14:19;99593.03;;;24.73
82400;BMP280;72039;48.812;8.198;2023-08-30T13:16:47;99592.16;;;24.52
82400;BMP280;72039;48.812;8.198;2023-08-30T13:19:12;99589.25;;;24.25
82400;BMP280;72039;48.812;8.198;2023-08-30T13:21:38;99596.66;;;24.10
82400;BMP280;72039;48.812;8.198;2023-08-30T13:24:04;99580.72;;;23.94
82400;BMP280;72039;48.812;8.198;2023-08-30T13:26:29;99584.25;;;23.95
82400;BMP280;72039;48.812;8.198;2023-08-30T13:28:57;99582.19;;;23.91
82400;BMP280;72039;48.812;8.198;2023-08-30T13:31:29;99581.56;;;23.86
82400;BMP280;72039;48.812;8.198;2023-08-30T13:33:55;99577.78;;;23.98
82400;BMP280;72039;48.812;8.198;2023-08-30T13:36:23;99587.41;;;24.11
82400;BMP280;72039;48.812;8.198;2023-08-30T13:38:49;99575.19;;;24.19
82400;BMP280;72039;48.812;8.198;2023-08-30T13:41:16;99567.16;;;24.30
82400;BMP280;72039;48.812;8.198;2023-08-30T13:43:45;99565.63;;;24.35
82400;BMP280;72039;48.812;8.198;2023-08-30T13:46:17;99560.13;;;24.29
82400;BMP280;72039;48.812;8.198;2023-08-30T13:48:42;99555.78;;;24.32
82400;BMP280;72039;48.812;8.198;2023-08-30T13:51:12;99562.78;;;24.35
82400;BMP280;72039;48.812;8.198;2023-08-30T13:53:38;99574.28;;;24.29
82400;BMP280;72039;48.812;8.198;2023-08-30T13:56:04;99574.47;;;24.20
82400;BMP280;72039;48.812;8.198;2023-08-30T13:58:31;99567.34;;;24.22
82400;BMP280;72039;48.812;8.198;2023-08-30T14:00:59;99574.47;;;24.20
82400;BMP280;72039;48.812;8.198;2023-08-30T14:03:29;99568.00;;;24.24
82400;BMP280;72039;48.812;8.198;2023-08-30T14:05:55;99575.91;;;24.19
82400;BMP280;72039;48.812;8.198;2023-08-30T14:08:22;99580.28;;;24.12
82400;BMP280;72039;48.812;8.198;2023-08-30T14:10:49;99572.09;;;24.00
82400;BMP280;72039;48.812;8.198;2023-08-30T14:13:14;99574.31;;;23.93
82400;BMP280;72039;48.812;8.198;2023-08-30T14:15:41;99573.91;;;23.81
82400;BMP280;72039;48.812;8.198;2023-08-30T14:18:09;99576.94;;;23.71
82400;BMP280;72039;48.812;8.198;2023-08-30T14:20:41;99581.38;;;23.61
82400;BMP280;72039;48.812;8.198;2023-08-30T14:23:06;99574.44;;;23.54
82400;BMP280;72039;48.812;8.198;2023-08-30T14:25:31;99571.06;;;23.46
82400;BMP280;72039;48.812;8.198;2023-08-30T14:27:57;99581.78;;;23.41
82400;BMP280;72039;48.812;8.198;2023-08-30T14:30:24;99586.81;;;23.36
82400;BMP280;72039;48.812;8.198;2023-08-30T14:32:50;99579.88;;;23.29